sensor_id;sensor_type;location;lat;lon;timestamp;P1;durP1;ratioP1;P2;durP2;ratioP2
48847;SDS011;36611;51.638;5.784;2022-09-30T00:01:21;5.28;;;4.60;;
48847;SDS011;36611;51.638;5.784;2022-09-30T00:03:55;11.00;;;4.57;;
48847;SDS011;36611;51.638;5.784;2022-09-30T00:06:23;4.93;;;4.45;;
48847;SDS011;36611;51.638;5.784;2022-09-30T00:08:51;5.03;;;4.53;;
48847;SDS011;36611;51.638;5.784;2022-09-30T00:11:20;4.90;;;4.38;;
48847;SDS011;36611;51.638;5.784;2022-09-30T00:13:50;6.28;;;5.50;;
48847;SDS011;36611;51.638;5.784;2022-09-30T00:16:18;6.88;;;5.30;;
48847;SDS011;36611;51.638;5.784;2022-09-30T00:18:49;7.25;;;6.53;;
48847;SDS011;36611;51.638;5.784;2022-09-30T00:21:16;8.95;;;7.50;;
48847;SDS011;36611;51.638;5.784;2022-09-30T00:23:47;8.82;;;7.93;;
48847;SDS011;36611;51.638;5.784;2022-09-30T00:26:14;11.18;;;8.23;;
48847;SDS011;36611;51.638;5.784;2022-09-30T00:28:43;7.90;;;7.10;;
48847;SDS011;36611;51.638;5.784;2022-09-30T00:31:14;12.63;;;8.10;;
48847;SDS011;36611;51.638;5.784;2022-09-30T00:33:45;8.55;;;7.70;;
48847;SDS011;36611;51.638;5.784;2022-09-30T00:36:48;9.27;;;8.38;;
48847;SDS011;36611;51.638;5.784;2022-09-30T00:41:48;12.00;;;9.57;;
48847;SDS011;36611;51.638;5.784;2022-09-30T00:56:19;11.93;;;9.60;;
48847;SDS011;36611;51.638;5.784;2022-09-30T00:58:51;11.45;;;9.65;;
48847;SDS011;36611;51.638;5.784;2022-09-30T01:01:26;11.55;;;8.88;;
48847;SDS011;36611;51.638;5.784;2022-09-30T01:03:58;10.27;;;8.88;;
48847;SDS011;36611;51.638;5.784;2022-09-30T01:06:26;9.93;;;8.38;;
48847;SDS011;36611;51.638;5.784;2022-09-30T01:08:53;10.10;;;8.65;;
48847;SDS011;36611;51.638;5.784;2022-09-30T01:11:20;12.63;;;9.77;;
48847;SDS011;36611;51.638;5.784;2022-09-30T01:13:50;9.73;;;8.68;;
48847;SDS011;36611;51.638;5.784;2022-09-30T01:33:54;11.95;;;8.80;;
48847;SDS011;36611;51.638;5.784;2022-09-30T01:39:10;11.98;;;8.68;;
48847;SDS011;36611;51.638;5.784;2022-09-30T01:47:24;10.65;;;8.77;;
48847;SDS011;36611;51.638;5.784;2022-09-30T01:49:59;11.67;;;9.70;;
48847;SDS011;36611;51.638;5.784;2022-09-30T01:52:43;11.32;;;9.43;;
48847;SDS011;36611;51.638;5.784;2022-09-30T02:01:21;9.80;;;8.52;;
48847;SDS011;36611;51.638;5.784;2022-09-30T02:03:54;12.13;;;9.88;;
48847;SDS011;36611;51.638;5.784;2022-09-30T02:06:26;9.70;;;8.30;;
48847;SDS011;36611;51.638;5.784;2022-09-30T02:09:03;10.73;;;9.10;;
48847;SDS011;36611;51.638;5.784;2022-09-30T02:11:36;13.02;;;9.43;;
48847;SDS011;36611;51.638;5.784;2022-09-30T02:14:19;11.30;;;9.32;;
48847;SDS011;36611;51.638;5.784;2022-09-30T02:16:53;10.93;;;9.43;;
48847;SDS011;36611;51.638;5.784;2022-09-30T02:22:03;14.15;;;9.55;;
48847;SDS011;36611;51.638;5.784;2022-09-30T02:24:39;12.43;;;9.60;;
48847;SDS011;36611;51.638;5.784;2022-09-30T02:27:10;11.80;;;9.10;;
48847;SDS011;36611;51.638;5.784;2022-09-30T02:29:43;11.95;;;9.38;;
48847;SDS011;36611;51.638;5.784;2022-09-30T02:32:23;11.75;;;9.20;;
48847;SDS011;36611;51.638;5.784;2022-09-30T02:34:57;16.00;;;11.07;;
48847;SDS011;36611;51.638;5.784;2022-09-30T02:37:31;11.23;;;9.82;;
48847;SDS011;36611;51.638;5.784;2022-09-30T02:42:54;11.32;;;10.00;;
48847;SDS011;36611;51.638;5.784;2022-09-30T02:45:22;12.45;;;10.55;;
48847;SDS011;36611;51.638;5.784;2022-09-30T02:50:44;12.25;;;10.15;;
48847;SDS011;36611;51.638;5.784;2022-09-30T02:56:06;14.45;;;10.75;;
48847;SDS011;36611;51.638;5.784;2022-09-30T02:58:46;11.30;;;9.65;;
48847;SDS011;36611;51.638;5.784;2022-09-30T03:01:15;12.10;;;10.02;;
48847;SDS011;36611;51.638;5.784;2022-09-30T03:03:52;10.85;;;9.25;;
48847;SDS011;36611;51.638;5.784;2022-09-30T03:06:23;9.75;;;8.55;;
48847;SDS011;36611;51.638;5.784;2022-09-30T03:08:51;9.82;;;8.30;;
48847;SDS011;36611;51.638;5.784;2022-09-30T03:11:19;10.70;;;7.60;;
48847;SDS011;36611;51.638;5.784;2022-09-30T03:17:11;9.75;;;7.85;;
48847;SDS011;36611;51.638;5.784;2022-09-30T03:25:38;12.00;;;8.98;;
48847;SDS011;36611;51.638;5.784;2022-09-30T03:28:31;11.68;;;9.35;;
48847;SDS011;36611;51.638;5.784;2022-09-30T03:31:06;10.45;;;8.93;;
48847;SDS011;36611;51.638;5.784;2022-09-30T03:37:19;10.93;;;9.82;;
48847;SDS011;36611;51.638;5.784;2022-09-30T03:39:42;14.65;;;11.80;;
48847;SDS011;36611;51.638;5.784;2022-09-30T03:42:41;16.55;;;12.32;;
48847;SDS011;36611;51.638;5.784;2022-09-30T03:47:48;19.15;;;12.00;;
48847;SDS011;36611;51.638;5.784;2022-09-30T03:50:19;15.65;;;12.43;;
48847;SDS011;36611;51.638;5.784;2022-09-30T03:52:48;16.20;;;12.23;;
48847;SDS011;36611;51.638;5.784;2022-09-30T03:55:16;14.25;;;11.93;;
48847;SDS011;36611;51.638;5.784;2022-09-30T03:57:44;14.63;;;12.18;;
48847;SDS011;36611;51.638;5.784;2022-09-30T04:00:11;14.43;;;11.60;;
48847;SDS011;36611;51.638;5.784;2022-09-30T04:02:38;13.40;;;11.93;;
48847;SDS011;36611;51.638;5.784;2022-09-30T04:05:05;15.25;;;12.50;;
48847;SDS011;36611;51.638;5.784;2022-09-30T04:07:33;17.52;;;13.07;;
48847;SDS011;36611;51.638;5.784;2022-09-30T04:10:00;13.77;;;11.68;;
48847;SDS011;36611;51.638;5.784;2022-09-30T04:12:26;14.85;;;12.60;;
48847;SDS011;36611;51.638;5.784;2022-09-30T04:14:54;15.65;;;13.52;;
48847;SDS011;36611;51.638;5.784;2022-09-30T04:17:21;17.42;;;13.55;;
48847;SDS011;36611;51.638;5.784;2022-09-30T04:19:48;18.80;;;15.00;;
48847;SDS011;36611;51.638;5.784;2022-09-30T04:22:15;18.27;;;15.38;;
48847;SDS011;36611;51.638;5.784;2022-09-30T04:24:41;15.95;;;13.90;;
48847;SDS011;36611;51.638;5.784;2022-09-30T04:27:09;18.73;;;13.80;;
48847;SDS011;36611;51.638;5.784;2022-09-30T04:29:35;19.13;;;14.60;;
48847;SDS011;36611;51.638;5.784;2022-09-30T04:32:02;26.35;;;15.30;;
48847;SDS011;36611;51.638;5.784;2022-09-30T04:34:29;17.75;;;14.13;;
48847;SDS011;36611;51.638;5.784;2022-09-30T04:36:56;17.33;;;14.85;;
48847;SDS011;36611;51.638;5.784;2022-09-30T04:39:22;17.35;;;13.25;;
48847;SDS011;36611;51.638;5.784;2022-09-30T04:41:49;15.18;;;13.45;;
48847;SDS011;36611;51.638;5.784;2022-09-30T04:44:20;15.60;;;13.55;;
48847;SDS011;36611;51.638;5.784;2022-09-30T04:46:46;16.52;;;13.45;;
48847;SDS011;36611;51.638;5.784;2022-09-30T04:49:13;16.92;;;13.65;;
48847;SDS011;36611;51.638;5.784;2022-09-30T04:51:39;16.27;;;13.27;;
48847;SDS011;36611;51.638;5.784;2022-09-30T04:54:12;15.73;;;12.70;;
48847;SDS011;36611;51.638;5.784;2022-09-30T04:56:39;16.55;;;12.55;;
48847;SDS011;36611;51.638;5.784;2022-09-30T04:59:05;15.43;;;12.65;;
48847;SDS011;36611;51.638;5.784;2022-09-30T05:01:32;16.38;;;12.75;;
48847;SDS011;36611;51.638;5.784;2022-09-30T05:04:02;15.68;;;12.48;;
48847;SDS011;36611;51.638;5.784;2022-09-30T05:06:29;19.08;;;13.65;;
48847;SDS011;36611;51.638;5.784;2022-09-30T05:08:55;17.95;;;12.85;;
48847;SDS011;36611;51.638;5.784;2022-09-30T05:11:22;16.65;;;13.02;;
48847;SDS011;36611;51.638;5.784;2022-09-30T05:13:49;15.25;;;11.85;;
48847;SDS011;36611;51.638;5.784;2022-09-30T05:16:16;14.65;;;12.23;;
48847;SDS011;36611;51.638;5.784;2022-09-30T05:18:44;15.77;;;11.80;;
48847;SDS011;36611;51.638;5.784;2022-09-30T05:21:13;13.73;;;11.60;;
48847;SDS011;36611;51.638;5.784;2022-09-30T05:23:45;16.20;;;13.20;;
48847;SDS011;36611;51.638;5.784;2022-09-30T05:26:12;17.02;;;13.65;;
48847;SDS011;36611;51.638;5.784;2022-09-30T05:28:40;15.77;;;12.25;;
48847;SDS011;36611;51.638;5.784;2022-09-30T05:31:07;16.05;;;13.35;;
48847;SDS011;36611;51.638;5.784;2022-09-30T05:33:34;17.05;;;13.45;;
48847;SDS011;36611;51.638;5.784;2022-09-30T05:36:09;16.23;;;13.38;;
48847;SDS011;36611;51.638;5.784;2022-09-30T05:38:38;16.92;;;13.70;;
48847;SDS011;36611;51.638;5.784;2022-09-30T05:41:08;21.63;;;14.45;;
48847;SDS011;36611;51.638;5.784;2022-09-30T05:43:39;19.13;;;14.43;;
48847;SDS011;36611;51.638;5.784;2022-09-30T05:46:07;20.63;;;14.00;;
48847;SDS011;36611;51.638;5.784;2022-09-30T05:48:34;18.05;;;13.60;;
48847;SDS011;36611;51.638;5.784;2022-09-30T05:51:01;18.80;;;13.77;;
48847;SDS011;36611;51.638;5.784;2022-09-30T05:53:28;18.33;;;14.02;;
48847;SDS011;36611;51.638;5.784;2022-09-30T05:55:57;16.95;;;13.30;;
48847;SDS011;36611;51.638;5.784;2022-09-30T05:58:24;16.65;;;13.63;;
48847;SDS011;36611;51.638;5.784;2022-09-30T06:00:52;17.88;;;13.82;;
48847;SDS011;36611;51.638;5.784;2022-09-30T06:03:19;18.73;;;13.15;;
48847;SDS011;36611;51.638;5.784;2022-09-30T06:05:45;19.52;;;14.38;;
48847;SDS011;36611;51.638;5.784;2022-09-30T06:08:12;19.55;;;14.50;;
48847;SDS011;36611;51.638;5.784;2022-09-30T06:10:40;18.45;;;14.15;;
48847;SDS011;36611;51.638;5.784;2022-09-30T06:13:08;19.83;;;14.30;;
48847;SDS011;36611;51.638;5.784;2022-09-30T06:15:35;20.67;;;14.57;;
48847;SDS011;36611;51.638;5.784;2022-09-30T06:18:04;14.77;;;12.55;;
48847;SDS011;36611;51.638;5.784;2022-09-30T06:20:31;18.02;;;13.85;;
48847;SDS011;36611;51.638;5.784;2022-09-30T06:23:00;19.88;;;13.52;;
48847;SDS011;36611;51.638;5.784;2022-09-30T06:25:28;16.52;;;12.70;;
48847;SDS011;36611;51.638;5.784;2022-09-30T06:27:55;26.65;;;15.23;;
48847;SDS011;36611;51.638;5.784;2022-09-30T06:30:22;19.42;;;14.65;;
48847;SDS011;36611;51.638;5.784;2022-09-30T06:32:50;21.75;;;15.60;;
48847;SDS011;36611;51.638;5.784;2022-09-30T06:35:19;17.85;;;14.45;;
48847;SDS011;36611;51.638;5.784;2022-09-30T06:37:49;21.55;;;15.25;;
48847;SDS011;36611;51.638;5.784;2022-09-30T06:40:17;21.15;;;15.77;;
48847;SDS011;36611;51.638;5.784;2022-09-30T06:42:46;19.20;;;15.13;;
48847;SDS011;36611;51.638;5.784;2022-09-30T06:45:18;21.77;;;16.15;;
48847;SDS011;36611;51.638;5.784;2022-09-30T06:47:58;24.00;;;16.92;;
48847;SDS011;36611;51.638;5.784;2022-09-30T06:50:26;24.98;;;18.48;;
48847;SDS011;36611;51.638;5.784;2022-09-30T06:53:03;25.73;;;17.95;;
48847;SDS011;36611;51.638;5.784;2022-09-30T06:55:35;25.75;;;17.85;;
48847;SDS011;36611;51.638;5.784;2022-09-30T06:58:04;25.50;;;18.90;;
48847;SDS011;36611;51.638;5.784;2022-09-30T07:00:36;21.67;;;17.58;;
48847;SDS011;36611;51.638;5.784;2022-09-30T07:03:03;20.67;;;16.75;;
48847;SDS011;36611;51.638;5.784;2022-09-30T07:05:36;20.95;;;16.55;;
48847;SDS011;36611;51.638;5.784;2022-09-30T07:08:03;20.55;;;15.98;;
48847;SDS011;36611;51.638;5.784;2022-09-30T07:10:29;28.55;;;17.52;;
48847;SDS011;36611;51.638;5.784;2022-09-30T07:12:56;20.38;;;16.23;;
48847;SDS011;36611;51.638;5.784;2022-09-30T07:15:22;17.92;;;15.50;;
48847;SDS011;36611;51.638;5.784;2022-09-30T07:17:50;23.60;;;16.73;;
48847;SDS011;36611;51.638;5.784;2022-09-30T07:20:22;20.23;;;16.00;;
48847;SDS011;36611;51.638;5.784;2022-09-30T07:22:49;21.38;;;16.10;;
48847;SDS011;36611;51.638;5.784;2022-09-30T07:25:17;19.67;;;16.50;;
48847;SDS011;36611;51.638;5.784;2022-09-30T07:27:45;19.90;;;16.33;;
48847;SDS011;36611;51.638;5.784;2022-09-30T07:30:12;24.75;;;17.83;;
48847;SDS011;36611;51.638;5.784;2022-09-30T07:32:51;26.98;;;16.65;;
48847;SDS011;36611;51.638;5.784;2022-09-30T07:35:18;20.35;;;16.77;;
48847;SDS011;36611;51.638;5.784;2022-09-30T07:37:45;24.42;;;18.45;;
48847;SDS011;36611;51.638;5.784;2022-09-30T07:40:11;21.58;;;17.55;;
48847;SDS011;36611;51.638;5.784;2022-09-30T07:42:38;22.58;;;17.45;;
48847;SDS011;36611;51.638;5.784;2022-09-30T07:45:11;22.85;;;16.58;;
48847;SDS011;36611;51.638;5.784;2022-09-30T07:47:42;24.85;;;18.55;;
48847;SDS011;36611;51.638;5.784;2022-09-30T07:50:08;27.23;;;17.83;;
48847;SDS011;36611;51.638;5.784;2022-09-30T07:52:35;22.48;;;19.52;;
48847;SDS011;36611;51.638;5.784;2022-09-30T07:55:03;22.00;;;18.65;;
48847;SDS011;36611;51.638;5.784;2022-09-30T07:57:30;24.30;;;19.73;;
48847;SDS011;36611;51.638;5.784;2022-09-30T07:59:56;20.92;;;18.73;;
48847;SDS011;36611;51.638;5.784;2022-09-30T08:02:23;25.73;;;19.88;;
48847;SDS011;36611;51.638;5.784;2022-09-30T08:04:50;23.65;;;20.05;;
48847;SDS011;36611;51.638;5.784;2022-09-30T08:07:16;26.10;;;19.92;;
48847;SDS011;36611;51.638;5.784;2022-09-30T08:09:44;22.20;;;19.80;;
48847;SDS011;36611;51.638;5.784;2022-09-30T08:12:10;25.02;;;21.17;;
48847;SDS011;36611;51.638;5.784;2022-09-30T08:14:41;23.98;;;20.55;;
48847;SDS011;36611;51.638;5.784;2022-09-30T08:17:09;28.10;;;20.58;;
48847;SDS011;36611;51.638;5.784;2022-09-30T08:19:36;30.02;;;20.85;;
48847;SDS011;36611;51.638;5.784;2022-09-30T08:22:03;25.05;;;21.42;;
48847;SDS011;36611;51.638;5.784;2022-09-30T08:24:35;26.02;;;21.10;;
48847;SDS011;36611;51.638;5.784;2022-09-30T08:27:01;25.38;;;21.50;;
48847;SDS011;36611;51.638;5.784;2022-09-30T08:29:28;26.17;;;21.48;;
48847;SDS011;36611;51.638;5.784;2022-09-30T08:32:15;25.95;;;22.10;;
48847;SDS011;36611;51.638;5.784;2022-09-30T08:34:43;28.52;;;22.55;;
48847;SDS011;36611;51.638;5.784;2022-09-30T08:37:09;27.38;;;22.95;;
48847;SDS011;36611;51.638;5.784;2022-09-30T08:39:36;26.45;;;22.13;;
48847;SDS011;36611;51.638;5.784;2022-09-30T08:45:16;27.50;;;23.70;;
48847;SDS011;36611;51.638;5.784;2022-09-30T08:47:58;26.85;;;22.60;;
48847;SDS011;36611;51.638;5.784;2022-09-30T08:53:14;26.20;;;22.67;;
48847;SDS011;36611;51.638;5.784;2022-09-30T08:55:49;28.33;;;23.05;;
48847;SDS011;36611;51.638;5.784;2022-09-30T08:58:25;25.10;;;21.42;;
48847;SDS011;36611;51.638;5.784;2022-09-30T09:00:55;25.42;;;21.02;;
48847;SDS011;36611;51.638;5.784;2022-09-30T09:03:28;26.15;;;21.60;;
48847;SDS011;36611;51.638;5.784;2022-09-30T09:09:00;24.75;;;21.92;;
48847;SDS011;36611;51.638;5.784;2022-09-30T09:17:19;23.92;;;19.45;;
48847;SDS011;36611;51.638;5.784;2022-09-30T09:22:30;20.25;;;17.40;;
48847;SDS011;36611;51.638;5.784;2022-09-30T09:24:57;17.67;;;15.73;;
48847;SDS011;36611;51.638;5.784;2022-09-30T09:27:30;19.17;;;15.98;;
48847;SDS011;36611;51.638;5.784;2022-09-30T09:30:18;17.88;;;15.82;;
48847;SDS011;36611;51.638;5.784;2022-09-30T09:32:53;17.98;;;14.45;;
48847;SDS011;36611;51.638;5.784;2022-09-30T09:38:00;16.70;;;14.52;;
48847;SDS011;36611;51.638;5.784;2022-09-30T09:41:00;13.05;;;11.55;;
48847;SDS011;36611;51.638;5.784;2022-09-30T09:46:45;15.82;;;11.98;;
48847;SDS011;36611;51.638;5.784;2022-09-30T09:57:18;15.13;;;10.88;;
48847;SDS011;36611;51.638;5.784;2022-09-30T10:00:11;13.93;;;11.93;;
48847;SDS011;36611;51.638;5.784;2022-09-30T10:05:34;15.65;;;12.20;;
48847;SDS011;36611;51.638;5.784;2022-09-30T10:10:48;16.08;;;12.65;;
48847;SDS011;36611;51.638;5.784;2022-09-30T10:13:23;16.73;;;13.57;;
48847;SDS011;36611;51.638;5.784;2022-09-30T10:15:58;15.45;;;13.23;;
48847;SDS011;36611;51.638;5.784;2022-09-30T10:18:33;17.05;;;13.45;;
48847;SDS011;36611;51.638;5.784;2022-09-30T10:21:04;15.30;;;12.75;;
48847;SDS011;36611;51.638;5.784;2022-09-30T10:23:40;18.98;;;12.90;;
48847;SDS011;36611;51.638;5.784;2022-09-30T10:28:44;11.70;;;10.25;;
48847;SDS011;36611;51.638;5.784;2022-09-30T10:37:00;13.02;;;10.20;;
48847;SDS011;36611;51.638;5.784;2022-09-30T10:39:33;13.73;;;10.17;;
48847;SDS011;36611;51.638;5.784;2022-09-30T10:42:18;14.60;;;11.30;;
48847;SDS011;36611;51.638;5.784;2022-09-30T10:47:36;14.20;;;11.00;;
48847;SDS011;36611;51.638;5.784;2022-09-30T10:50:10;16.67;;;11.88;;
48847;SDS011;36611;51.638;5.784;2022-09-30T10:52:46;14.35;;;11.70;;
48847;SDS011;36611;51.638;5.784;2022-09-30T10:57:48;14.35;;;12.10;;
48847;SDS011;36611;51.638;5.784;2022-09-30T11:00:17;13.25;;;11.85;;
48847;SDS011;36611;51.638;5.784;2022-09-30T11:06:15;15.98;;;12.70;;
48847;SDS011;36611;51.638;5.784;2022-09-30T11:08:52;16.25;;;13.35;;
48847;SDS011;36611;51.638;5.784;2022-09-30T11:11:33;14.98;;;12.73;;
48847;SDS011;36611;51.638;5.784;2022-09-30T11:19:45;11.73;;;10.02;;
48847;SDS011;36611;51.638;5.784;2022-09-30T11:25:13;11.18;;;8.75;;
48847;SDS011;36611;51.638;5.784;2022-09-30T11:33:56;8.15;;;6.55;;
48847;SDS011;36611;51.638;5.784;2022-09-30T11:36:38;7.60;;;5.95;;
48847;SDS011;36611;51.638;5.784;2022-09-30T11:44:42;6.63;;;4.97;;
48847;SDS011;36611;51.638;5.784;2022-09-30T11:47:17;5.43;;;4.35;;
48847;SDS011;36611;51.638;5.784;2022-09-30T11:50:05;5.07;;;4.03;;
48847;SDS011;36611;51.638;5.784;2022-09-30T11:52:48;6.00;;;4.30;;
48847;SDS011;36611;51.638;5.784;2022-09-30T11:57:58;4.25;;;3.53;;
48847;SDS011;36611;51.638;5.784;2022-09-30T12:00:50;4.93;;;3.50;;
48847;SDS011;36611;51.638;5.784;2022-09-30T12:03:23;2.95;;;2.58;;
48847;SDS011;36611;51.638;5.784;2022-09-30T12:05:57;2.10;;;1.90;;
48847;SDS011;36611;51.638;5.784;2022-09-30T12:11:02;4.10;;;1.73;;
48847;SDS011;36611;51.638;5.784;2022-09-30T12:16:23;2.88;;;1.90;;
48847;SDS011;36611;51.638;5.784;2022-09-30T12:19:14;2.15;;;1.38;;
48847;SDS011;36611;51.638;5.784;2022-09-30T12:24:41;1.35;;;1.10;;
48847;SDS011;36611;51.638;5.784;2022-09-30T12:29:57;2.40;;;1.70;;
48847;SDS011;36611;51.638;5.784;2022-09-30T12:35:44;3.47;;;1.20;;
48847;SDS011;36611;51.638;5.784;2022-09-30T12:38:37;2.10;;;1.20;;
48847;SDS011;36611;51.638;5.784;2022-09-30T12:50:12;2.25;;;1.25;;
48847;SDS011;36611;51.638;5.784;2022-09-30T12:52:42;1.52;;;0.95;;
48847;SDS011;36611;51.638;5.784;2022-09-30T12:55:26;1.40;;;1.30;;
48847;SDS011;36611;51.638;5.784;2022-09-30T12:57:57;1.83;;;1.30;;
48847;SDS011;36611;51.638;5.784;2022-09-30T13:00:29;1.52;;;1.17;;
48847;SDS011;36611;51.638;5.784;2022-09-30T13:03:04;6.68;;;1.38;;
48847;SDS011;36611;51.638;5.784;2022-09-30T13:10:30;1.60;;;1.20;;
48847;SDS011;36611;51.638;5.784;2022-09-30T13:15:57;5.32;;;1.40;;
48847;SDS011;36611;51.638;5.784;2022-09-30T13:23:47;2.35;;;1.30;;
48847;SDS011;36611;51.638;5.784;2022-09-30T13:28:48;3.17;;;1.75;;
48847;SDS011;36611;51.638;5.784;2022-09-30T13:31:18;1.58;;;1.20;;
48847;SDS011;36611;51.638;5.784;2022-09-30T13:34:08;2.40;;;1.38;;
48847;SDS011;36611;51.638;5.784;2022-09-30T13:36:38;2.97;;;1.05;;
48847;SDS011;36611;51.638;5.784;2022-09-30T13:39:18;2.53;;;1.20;;
48847;SDS011;36611;51.638;5.784;2022-09-30T13:41:56;1.52;;;0.90;;
48847;SDS011;36611;51.638;5.784;2022-09-30T13:44:34;1.17;;;1.07;;
48847;SDS011;36611;51.638;5.784;2022-09-30T13:47:13;1.20;;;0.90;;
48847;SDS011;36611;51.638;5.784;2022-09-30T13:49:51;2.92;;;1.10;;
48847;SDS011;36611;51.638;5.784;2022-09-30T13:52:41;1.88;;;1.33;;
48847;SDS011;36611;51.638;5.784;2022-09-30T13:55:15;3.30;;;1.80;;
48847;SDS011;36611;51.638;5.784;2022-09-30T13:57:49;4.28;;;1.20;;
48847;SDS011;36611;51.638;5.784;2022-09-30T14:00:42;1.85;;;0.82;;
48847;SDS011;36611;51.638;5.784;2022-09-30T14:03:33;1.65;;;1.20;;
48847;SDS011;36611;51.638;5.784;2022-09-30T14:09:34;2.22;;;1.00;;
48847;SDS011;36611;51.638;5.784;2022-09-30T14:23:32;1.10;;;0.68;;
48847;SDS011;36611;51.638;5.784;2022-09-30T14:28:56;3.88;;;1.20;;
48847;SDS011;36611;51.638;5.784;2022-09-30T14:31:33;2.00;;;1.02;;
48847;SDS011;36611;51.638;5.784;2022-09-30T14:34:03;1.23;;;0.85;;
48847;SDS011;36611;51.638;5.784;2022-09-30T14:36:30;2.33;;;1.02;;
48847;SDS011;36611;51.638;5.784;2022-09-30T14:38:58;1.65;;;1.38;;
48847;SDS011;36611;51.638;5.784;2022-09-30T14:41:26;1.63;;;0.93;;
48847;SDS011;36611;51.638;5.784;2022-09-30T14:43:56;2.20;;;0.93;;
48847;SDS011;36611;51.638;5.784;2022-09-30T14:46:40;4.18;;;1.00;;
48847;SDS011;36611;51.638;5.784;2022-09-30T14:49:13;3.63;;;1.48;;
48847;SDS011;36611;51.638;5.784;2022-09-30T14:51:44;3.38;;;1.27;;
48847;SDS011;36611;51.638;5.784;2022-09-30T14:54:19;1.42;;;0.77;;
48847;SDS011;36611;51.638;5.784;2022-09-30T14:56:48;3.30;;;1.20;;
48847;SDS011;36611;51.638;5.784;2022-09-30T14:59:20;3.78;;;1.30;;
48847;SDS011;36611;51.638;5.784;2022-09-30T15:01:53;2.47;;;1.25;;
48847;SDS011;36611;51.638;5.784;2022-09-30T15:04:28;3.95;;;1.15;;
48847;SDS011;36611;51.638;5.784;2022-09-30T15:06:58;1.90;;;1.13;;
48847;SDS011;36611;51.638;5.784;2022-09-30T15:12:06;1.63;;;1.08;;
48847;SDS011;36611;51.638;5.784;2022-09-30T15:20:53;2.72;;;1.30;;
48847;SDS011;36611;51.638;5.784;2022-09-30T15:23:29;2.47;;;1.08;;
48847;SDS011;36611;51.638;5.784;2022-09-30T15:25:59;2.70;;;1.23;;
48847;SDS011;36611;51.638;5.784;2022-09-30T15:28:26;3.22;;;1.30;;
48847;SDS011;36611;51.638;5.784;2022-09-30T15:30:55;2.85;;;0.90;;
48847;SDS011;36611;51.638;5.784;2022-09-30T15:33:24;3.83;;;1.20;;
48847;SDS011;36611;51.638;5.784;2022-09-30T15:36:01;3.25;;;1.10;;
48847;SDS011;36611;51.638;5.784;2022-09-30T15:38:49;3.42;;;1.20;;
48847;SDS011;36611;51.638;5.784;2022-09-30T15:41:17;1.45;;;1.27;;
48847;SDS011;36611;51.638;5.784;2022-09-30T15:43:48;3.80;;;1.17;;
48847;SDS011;36611;51.638;5.784;2022-09-30T15:49:29;1.67;;;1.00;;
48847;SDS011;36611;51.638;5.784;2022-09-30T15:54:54;1.50;;;0.90;;
48847;SDS011;36611;51.638;5.784;2022-09-30T16:00:30;4.40;;;1.58;;
48847;SDS011;36611;51.638;5.784;2022-09-30T16:03:22;1.88;;;1.10;;
48847;SDS011;36611;51.638;5.784;2022-09-30T16:06:03;2.78;;;1.27;;
48847;SDS011;36611;51.638;5.784;2022-09-30T16:08:38;1.58;;;0.98;;
48847;SDS011;36611;51.638;5.784;2022-09-30T16:11:08;9.07;;;1.42;;
48847;SDS011;36611;51.638;5.784;2022-09-30T16:13:49;3.63;;;1.15;;
48847;SDS011;36611;51.638;5.784;2022-09-30T16:16:20;1.75;;;1.10;;
48847;SDS011;36611;51.638;5.784;2022-09-30T16:18:50;2.13;;;1.15;;
48847;SDS011;36611;51.638;5.784;2022-09-30T16:21:29;3.47;;;1.40;;
48847;SDS011;36611;51.638;5.784;2022-09-30T16:26:56;3.42;;;1.30;;
48847;SDS011;36611;51.638;5.784;2022-09-30T16:29:24;4.53;;;1.38;;
48847;SDS011;36611;51.638;5.784;2022-09-30T16:31:54;3.85;;;1.35;;
48847;SDS011;36611;51.638;5.784;2022-09-30T16:34:25;4.43;;;1.48;;
48847;SDS011;36611;51.638;5.784;2022-09-30T16:36:54;3.92;;;1.52;;
48847;SDS011;36611;51.638;5.784;2022-09-30T16:39:30;2.03;;;1.30;;
48847;SDS011;36611;51.638;5.784;2022-09-30T16:41:56;3.20;;;1.58;;
48847;SDS011;36611;51.638;5.784;2022-09-30T16:44:27;3.20;;;1.45;;
48847;SDS011;36611;51.638;5.784;2022-09-30T16:46:55;2.70;;;1.45;;
48847;SDS011;36611;51.638;5.784;2022-09-30T16:49:21;4.10;;;1.60;;
48847;SDS011;36611;51.638;5.784;2022-09-30T16:51:48;2.63;;;1.55;;
48847;SDS011;36611;51.638;5.784;2022-09-30T16:54:14;1.80;;;1.52;;
48847;SDS011;36611;51.638;5.784;2022-09-30T16:56:41;4.45;;;1.92;;
48847;SDS011;36611;51.638;5.784;2022-09-30T16:59:11;3.88;;;1.50;;
48847;SDS011;36611;51.638;5.784;2022-09-30T17:01:39;5.13;;;2.00;;
48847;SDS011;36611;51.638;5.784;2022-09-30T17:04:07;5.35;;;1.75;;
48847;SDS011;36611;51.638;5.784;2022-09-30T17:06:40;3.33;;;1.85;;
48847;SDS011;36611;51.638;5.784;2022-09-30T17:09:07;3.70;;;2.58;;
48847;SDS011;36611;51.638;5.784;2022-09-30T17:11:34;5.97;;;2.10;;
48847;SDS011;36611;51.638;5.784;2022-09-30T17:14:05;4.93;;;2.20;;
48847;SDS011;36611;51.638;5.784;2022-09-30T17:16:32;4.30;;;2.55;;
48847;SDS011;36611;51.638;5.784;2022-09-30T17:18:59;5.03;;;2.72;;
48847;SDS011;36611;51.638;5.784;2022-09-30T17:21:26;5.47;;;2.60;;
48847;SDS011;36611;51.638;5.784;2022-09-30T17:23:56;8.13;;;2.63;;
48847;SDS011;36611;51.638;5.784;2022-09-30T17:26:24;3.92;;;2.53;;
48847;SDS011;36611;51.638;5.784;2022-09-30T17:28:50;3.67;;;2.33;;
48847;SDS011;36611;51.638;5.784;2022-09-30T17:31:16;4.15;;;2.42;;
48847;SDS011;36611;51.638;5.784;2022-09-30T17:33:47;6.15;;;2.65;;
48847;SDS011;36611;51.638;5.784;2022-09-30T17:36:13;3.00;;;2.15;;
48847;SDS011;36611;51.638;5.784;2022-09-30T17:38:40;3.80;;;2.10;;
48847;SDS011;36611;51.638;5.784;2022-09-30T17:41:08;2.67;;;2.00;;
48847;SDS011;36611;51.638;5.784;2022-09-30T17:43:57;2.13;;;1.90;;
48847;SDS011;36611;51.638;5.784;2022-09-30T17:46:27;2.50;;;1.90;;
48847;SDS011;36611;51.638;5.784;2022-09-30T17:48:54;2.95;;;2.40;;
48847;SDS011;36611;51.638;5.784;2022-09-30T17:51:21;3.90;;;1.90;;
48847;SDS011;36611;51.638;5.784;2022-09-30T17:53:50;3.85;;;2.30;;
48847;SDS011;36611;51.638;5.784;2022-09-30T17:56:17;2.60;;;1.85;;
48847;SDS011;36611;51.638;5.784;2022-09-30T17:58:47;4.53;;;1.98;;
48847;SDS011;36611;51.638;5.784;2022-09-30T18:01:16;2.80;;;2.08;;
48847;SDS011;36611;51.638;5.784;2022-09-30T18:03:49;3.47;;;1.92;;
48847;SDS011;36611;51.638;5.784;2022-09-30T18:06:18;4.15;;;2.30;;
48847;SDS011;36611;51.638;5.784;2022-09-30T18:08:49;2.03;;;1.83;;
48847;SDS011;36611;51.638;5.784;2022-09-30T18:11:20;2.20;;;2.00;;
48847;SDS011;36611;51.638;5.784;2022-09-30T18:13:54;6.82;;;2.17;;
48847;SDS011;36611;51.638;5.784;2022-09-30T18:16:26;3.85;;;2.05;;
48847;SDS011;36611;51.638;5.784;2022-09-30T18:18:57;2.88;;;2.05;;
48847;SDS011;36611;51.638;5.784;2022-09-30T18:21:24;2.20;;;2.00;;
48847;SDS011;36611;51.638;5.784;2022-09-30T18:23:54;3.45;;;2.30;;
48847;SDS011;36611;51.638;5.784;2022-09-30T18:26:24;3.42;;;2.42;;
48847;SDS011;36611;51.638;5.784;2022-09-30T18:28:51;18.67;;;2.95;;
48847;SDS011;36611;51.638;5.784;2022-09-30T18:31:18;3.65;;;2.58;;
48847;SDS011;36611;51.638;5.784;2022-09-30T18:33:54;4.53;;;2.70;;
48847;SDS011;36611;51.638;5.784;2022-09-30T18:36:21;3.15;;;2.40;;
48847;SDS011;36611;51.638;5.784;2022-09-30T18:38:49;3.65;;;2.60;;
48847;SDS011;36611;51.638;5.784;2022-09-30T18:41:15;3.97;;;2.55;;
48847;SDS011;36611;51.638;5.784;2022-09-30T18:43:44;6.65;;;2.83;;
48847;SDS011;36611;51.638;5.784;2022-09-30T18:46:11;5.10;;;2.50;;